sensor_id;sensor_type;location;lat;lon;timestamp;P1;durP1;ratioP1;P2;durP2;ratioP2
32491;SDS011;20605;49.742;18.802;2023-04-15T00:01:27;1.60;;;1.50;;
32491;SDS011;20605;49.742;18.802;2023-04-15T00:03:54;3.30;;;2.40;;
32491;SDS011;20605;49.742;18.802;2023-04-15T00:06:20;1.70;;;1.50;;
32491;SDS011;20605;49.742;18.802;2023-04-15T00:08:47;2.20;;;1.80;;
32491;SDS011;20605;49.742;18.802;2023-04-15T00:11:13;2.70;;;2.10;;
32491;SDS011;20605;49.742;18.802;2023-04-15T00:13:39;1.50;;;1.40;;
32491;SDS011;20605;49.742;18.802;2023-04-15T00:16:06;2.10;;;1.70;;
32491;SDS011;20605;49.742;18.802;2023-04-15T00:18:33;1.50;;;1.40;;
32491;SDS011;20605;49.742;18.802;2023-04-15T00:21:00;1.20;;;1.20;;
32491;SDS011;20605;49.742;18.802;2023-04-15T00:23:27;2.00;;;1.90;;
32491;SDS011;20605;49.742;18.802;2023-04-15T00:25:53;2.00;;;1.70;;
32491;SDS011;20605;49.742;18.802;2023-04-15T00:28:19;1.70;;;1.60;;
32491;SDS011;20605;49.742;18.802;2023-04-15T00:30:46;1.80;;;1.70;;
32491;SDS011;20605;49.742;18.802;2023-04-15T00:33:12;2.70;;;2.20;;
32491;SDS011;20605;49.742;18.802;2023-04-15T00:35:38;1.70;;;1.60;;
32491;SDS011;20605;49.742;18.802;2023-04-15T00:38:04;1.90;;;1.70;;
32491;SDS011;20605;49.742;18.802;2023-04-15T00:40:32;1.90;;;1.70;;
32491;SDS011;20605;49.742;18.802;2023-04-15T00:42:58;4.90;;;1.90;;
32491;SDS011;20605;49.742;18.802;2023-04-15T00:45:24;1.70;;;1.50;;
32491;SDS011;20605;49.742;18.802;2023-04-15T00:47:53;1.50;;;1.40;;
32491;SDS011;20605;49.742;18.802;2023-04-15T00:50:20;1.70;;;1.60;;
32491;SDS011;20605;49.742;18.802;2023-04-15T00:52:46;1.50;;;1.40;;
32491;SDS011;20605;49.742;18.802;2023-04-15T00:55:14;2.50;;;1.70;;
32491;SDS011;20605;49.742;18.802;2023-04-15T00:57:40;2.40;;;1.90;;
32491;SDS011;20605;49.742;18.802;2023-04-15T01:00:07;3.90;;;2.50;;
32491;SDS011;20605;49.742;18.802;2023-04-15T01:02:34;3.00;;;2.30;;
32491;SDS011;20605;49.742;18.802;2023-04-15T01:05:01;3.80;;;2.80;;
32491;SDS011;20605;49.742;18.802;2023-04-15T01:07:28;5.70;;;3.20;;
32491;SDS011;20605;49.742;18.802;2023-04-15T01:09:54;4.00;;;2.90;;
32491;SDS011;20605;49.742;18.802;2023-04-15T01:12:20;2.60;;;2.40;;
32491;SDS011;20605;49.742;18.802;2023-04-15T01:14:46;4.20;;;3.20;;
32491;SDS011;20605;49.742;18.802;2023-04-15T01:17:12;5.70;;;3.80;;
32491;SDS011;20605;49.742;18.802;2023-04-15T01:19:38;5.80;;;3.90;;
32491;SDS011;20605;49.742;18.802;2023-04-15T01:22:10;10.60;;;6.80;;
32491;SDS011;20605;49.742;18.802;2023-04-15T01:24:37;7.20;;;6.30;;
32491;SDS011;20605;49.742;18.802;2023-04-15T01:27:03;7.40;;;4.90;;
32491;SDS011;20605;49.742;18.802;2023-04-15T01:29:30;4.60;;;4.10;;
32491;SDS011;20605;49.742;18.802;2023-04-15T01:31:57;4.20;;;3.20;;
32491;SDS011;20605;49.742;18.802;2023-04-15T01:34:25;5.70;;;5.00;;
32491;SDS011;20605;49.742;18.802;2023-04-15T01:36:52;4.30;;;3.90;;
32491;SDS011;20605;49.742;18.802;2023-04-15T01:39:26;5.40;;;3.50;;
32491;SDS011;20605;49.742;18.802;2023-04-15T01:41:55;6.00;;;3.90;;
32491;SDS011;20605;49.742;18.802;2023-04-15T01:44:23;7.00;;;4.40;;
32491;SDS011;20605;49.742;18.802;2023-04-15T01:46:50;9.40;;;4.80;;
32491;SDS011;20605;49.742;18.802;2023-04-15T01:49:15;12.40;;;6.70;;
32491;SDS011;20605;49.742;18.802;2023-04-15T01:51:41;15.00;;;7.80;;
32491;SDS011;20605;49.742;18.802;2023-04-15T01:54:07;13.50;;;8.70;;
32491;SDS011;20605;49.742;18.802;2023-04-15T01:56:32;8.30;;;5.40;;
32491;SDS011;20605;49.742;18.802;2023-04-15T01:58:58;7.40;;;4.10;;
32491;SDS011;20605;49.742;18.802;2023-04-15T02:01:28;6.10;;;4.10;;
32491;SDS011;20605;49.742;18.802;2023-04-15T02:04:00;4.90;;;4.00;;
32491;SDS011;20605;49.742;18.802;2023-04-15T02:06:26;5.90;;;4.30;;
32491;SDS011;20605;49.742;18.802;2023-04-15T02:08:54;5.10;;;4.60;;
32491;SDS011;20605;49.742;18.802;2023-04-15T02:11:19;9.60;;;8.20;;
32491;SDS011;20605;49.742;18.802;2023-04-15T02:13:45;6.00;;;3.90;;
32491;SDS011;20605;49.742;18.802;2023-04-15T02:16:15;6.70;;;2.80;;
32491;SDS011;20605;49.742;18.802;2023-04-15T02:18:43;6.90;;;5.70;;
32491;SDS011;20605;49.742;18.802;2023-04-15T02:21:11;8.40;;;5.30;;
32491;SDS011;20605;49.742;18.802;2023-04-15T02:23:37;8.90;;;6.60;;
32491;SDS011;20605;49.742;18.802;2023-04-15T02:26:03;8.70;;;6.40;;
32491;SDS011;20605;49.742;18.802;2023-04-15T02:28:31;8.90;;;6.90;;
32491;SDS011;20605;49.742;18.802;2023-04-15T02:30:57;7.80;;;6.30;;
32491;SDS011;20605;49.742;18.802;2023-04-15T02:33:24;5.70;;;4.80;;
32491;SDS011;20605;49.742;18.802;2023-04-15T02:35:50;6.90;;;5.00;;
32491;SDS011;20605;49.742;18.802;2023-04-15T02:38:17;7.50;;;4.60;;
32491;SDS011;20605;49.742;18.802;2023-04-15T02:40:43;3.60;;;3.00;;
32491;SDS011;20605;49.742;18.802;2023-04-15T02:43:08;5.40;;;3.60;;
32491;SDS011;20605;49.742;18.802;2023-04-15T02:45:34;6.20;;;3.70;;
32491;SDS011;20605;49.742;18.802;2023-04-15T02:48:01;4.70;;;2.60;;
32491;SDS011;20605;49.742;18.802;2023-04-15T02:50:30;6.10;;;4.00;;
32491;SDS011;20605;49.742;18.802;2023-04-15T02:52:56;4.30;;;3.60;;
32491;SDS011;20605;49.742;18.802;2023-04-15T02:55:22;3.90;;;3.40;;
32491;SDS011;20605;49.742;18.802;2023-04-15T02:57:48;3.40;;;2.90;;
32491;SDS011;20605;49.742;18.802;2023-04-15T03:00:14;4.20;;;3.00;;
32491;SDS011;20605;49.742;18.802;2023-04-15T03:02:42;3.80;;;2.60;;
32491;SDS011;20605;49.742;18.802;2023-04-15T03:05:12;5.20;;;2.90;;
32491;SDS011;20605;49.742;18.802;2023-04-15T03:10:10;6.00;;;4.90;;
32491;SDS011;20605;49.742;18.802;2023-04-15T03:12:36;4.50;;;4.00;;
32491;SDS011;20605;49.742;18.802;2023-04-15T03:15:02;4.90;;;3.70;;
32491;SDS011;20605;49.742;18.802;2023-04-15T03:17:36;5.40;;;3.90;;
32491;SDS011;20605;49.742;18.802;2023-04-15T03:20:02;4.40;;;4.00;;
32491;SDS011;20605;49.742;18.802;2023-04-15T03:22:30;5.90;;;4.90;;
32491;SDS011;20605;49.742;18.802;2023-04-15T03:24:57;6.70;;;5.50;;
32491;SDS011;20605;49.742;18.802;2023-04-15T03:27:24;6.10;;;4.70;;
32491;SDS011;20605;49.742;18.802;2023-04-15T03:29:52;5.00;;;3.90;;
32491;SDS011;20605;49.742;18.802;2023-04-15T03:32:19;5.30;;;4.50;;
32491;SDS011;20605;49.742;18.802;2023-04-15T03:34:46;5.60;;;4.70;;
32491;SDS011;20605;49.742;18.802;2023-04-15T03:37:12;5.30;;;4.30;;
32491;SDS011;20605;49.742;18.802;2023-04-15T03:39:38;4.60;;;3.60;;
32491;SDS011;20605;49.742;18.802;2023-04-15T03:42:03;6.90;;;3.80;;
32491;SDS011;20605;49.742;18.802;2023-04-15T03:44:29;4.10;;;3.60;;
32491;SDS011;20605;49.742;18.802;2023-04-15T03:46:55;4.70;;;3.30;;
32491;SDS011;20605;49.742;18.802;2023-04-15T03:49:21;4.00;;;3.50;;
32491;SDS011;20605;49.742;18.802;2023-04-15T03:51:47;5.80;;;3.40;;
32491;SDS011;20605;49.742;18.802;2023-04-15T03:54:13;7.40;;;4.60;;
32491;SDS011;20605;49.742;18.802;2023-04-15T03:56:39;6.20;;;4.30;;
32491;SDS011;20605;49.742;18.802;2023-04-15T03:59:05;6.10;;;3.40;;
32491;SDS011;20605;49.742;18.802;2023-04-15T04:01:31;4.70;;;4.10;;
32491;SDS011;20605;49.742;18.802;2023-04-15T04:03:57;5.20;;;3.70;;
32491;SDS011;20605;49.742;18.802;2023-04-15T04:06:23;6.40;;;3.70;;
32491;SDS011;20605;49.742;18.802;2023-04-15T04:08:48;4.80;;;3.80;;
32491;SDS011;20605;49.742;18.802;2023-04-15T04:11:14;4.70;;;3.80;;
32491;SDS011;20605;49.742;18.802;2023-04-15T04:13:40;4.80;;;3.90;;
32491;SDS011;20605;49.742;18.802;2023-04-15T04:16:06;4.60;;;3.90;;
32491;SDS011;20605;49.742;18.802;2023-04-15T04:18:32;6.20;;;3.90;;
32491;SDS011;20605;49.742;18.802;2023-04-15T04:20:58;4.60;;;4.10;;
32491;SDS011;20605;49.742;18.802;2023-04-15T04:23:24;4.60;;;3.80;;
32491;SDS011;20605;49.742;18.802;2023-04-15T04:25:50;4.30;;;3.90;;
32491;SDS011;20605;49.742;18.802;2023-04-15T04:28:17;5.90;;;3.30;;
32491;SDS011;20605;49.742;18.802;2023-04-15T04:30:42;5.90;;;3.50;;
32491;SDS011;20605;49.742;18.802;2023-04-15T04:33:08;7.50;;;4.70;;
32491;SDS011;20605;49.742;18.802;2023-04-15T04:35:34;4.30;;;3.90;;
32491;SDS011;20605;49.742;18.802;2023-04-15T04:38:02;5.20;;;4.10;;
32491;SDS011;20605;49.742;18.802;2023-04-15T04:40:29;4.10;;;3.70;;
32491;SDS011;20605;49.742;18.802;2023-04-15T04:42:55;6.00;;;4.00;;
32491;SDS011;20605;49.742;18.802;2023-04-15T04:45:21;4.20;;;3.80;;
32491;SDS011;20605;49.742;18.802;2023-04-15T04:47:46;4.00;;;3.60;;
32491;SDS011;20605;49.742;18.802;2023-04-15T04:50:12;4.50;;;4.00;;
32491;SDS011;20605;49.742;18.802;2023-04-15T04:52:38;4.20;;;3.80;;
32491;SDS011;20605;49.742;18.802;2023-04-15T04:55:04;5.40;;;4.10;;
32491;SDS011;20605;49.742;18.802;2023-04-15T04:57:30;5.10;;;3.90;;
32491;SDS011;20605;49.742;18.802;2023-04-15T04:59:55;4.90;;;4.20;;
32491;SDS011;20605;49.742;18.802;2023-04-15T05:02:21;5.00;;;3.90;;
32491;SDS011;20605;49.742;18.802;2023-04-15T05:04:47;5.50;;;4.50;;
32491;SDS011;20605;49.742;18.802;2023-04-15T05:07:14;6.10;;;4.10;;
32491;SDS011;20605;49.742;18.802;2023-04-15T05:09:40;4.60;;;4.20;;
32491;SDS011;20605;49.742;18.802;2023-04-15T05:12:06;5.90;;;3.70;;
32491;SDS011;20605;49.742;18.802;2023-04-15T05:14:33;4.10;;;3.30;;
32491;SDS011;20605;49.742;18.802;2023-04-15T05:16:59;4.50;;;4.10;;
32491;SDS011;20605;49.742;18.802;2023-04-15T05:19:25;4.10;;;3.30;;
32491;SDS011;20605;49.742;18.802;2023-04-15T05:21:51;3.30;;;3.00;;
32491;SDS011;20605;49.742;18.802;2023-04-15T05:24:17;2.30;;;2.10;;
32491;SDS011;20605;49.742;18.802;2023-04-15T05:26:42;2.40;;;2.20;;
32491;SDS011;20605;49.742;18.802;2023-04-15T05:29:08;4.30;;;3.20;;
32491;SDS011;20605;49.742;18.802;2023-04-15T05:31:34;4.50;;;3.30;;
32491;SDS011;20605;49.742;18.802;2023-04-15T05:34:01;3.30;;;3.00;;
32491;SDS011;20605;49.742;18.802;2023-04-15T05:36:28;3.10;;;2.90;;
32491;SDS011;20605;49.742;18.802;2023-04-15T05:38:54;4.60;;;4.10;;
32491;SDS011;20605;49.742;18.802;2023-04-15T05:41:19;4.20;;;3.80;;
32491;SDS011;20605;49.742;18.802;2023-04-15T05:43:45;5.30;;;4.70;;
32491;SDS011;20605;49.742;18.802;2023-04-15T05:46:11;4.00;;;3.50;;
32491;SDS011;20605;49.742;18.802;2023-04-15T05:48:37;3.40;;;3.10;;
32491;SDS011;20605;49.742;18.802;2023-04-15T05:51:03;4.70;;;3.50;;
32491;SDS011;20605;49.742;18.802;2023-04-15T05:53:29;4.20;;;3.60;;
32491;SDS011;20605;49.742;18.802;2023-04-15T05:55:54;5.30;;;4.80;;
32491;SDS011;20605;49.742;18.802;2023-04-15T05:58:21;5.60;;;4.50;;
32491;SDS011;20605;49.742;18.802;2023-04-15T06:00:47;5.10;;;4.50;;
32491;SDS011;20605;49.742;18.802;2023-04-15T06:03:12;5.40;;;4.90;;
32491;SDS011;20605;49.742;18.802;2023-04-15T06:05:38;7.10;;;5.00;;
32491;SDS011;20605;49.742;18.802;2023-04-15T06:08:05;3.50;;;3.20;;
32491;SDS011;20605;49.742;18.802;2023-04-15T06:10:30;3.30;;;3.00;;
32491;SDS011;20605;49.742;18.802;2023-04-15T06:13:01;3.90;;;3.60;;
32491;SDS011;20605;49.742;18.802;2023-04-15T06:15:28;2.50;;;2.30;;
32491;SDS011;20605;49.742;18.802;2023-04-15T06:17:54;2.60;;;2.00;;
32491;SDS011;20605;49.742;18.802;2023-04-15T06:20:20;2.40;;;2.20;;
32491;SDS011;20605;49.742;18.802;2023-04-15T06:22:46;2.20;;;2.10;;
32491;SDS011;20605;49.742;18.802;2023-04-15T06:25:12;2.90;;;2.60;;
32491;SDS011;20605;49.742;18.802;2023-04-15T06:27:38;2.20;;;2.00;;
32491;SDS011;20605;49.742;18.802;2023-04-15T06:30:05;1.90;;;1.80;;
32491;SDS011;20605;49.742;18.802;2023-04-15T06:32:31;1.00;;;1.00;;
32491;SDS011;20605;49.742;18.802;2023-04-15T06:34:57;2.40;;;2.20;;
32491;SDS011;20605;49.742;18.802;2023-04-15T06:37:23;1.40;;;1.40;;
32491;SDS011;20605;49.742;18.802;2023-04-15T06:39:49;2.30;;;2.10;;
32491;SDS011;20605;49.742;18.802;2023-04-15T06:42:14;2.80;;;2.60;;
32491;SDS011;20605;49.742;18.802;2023-04-15T06:44:41;2.20;;;2.10;;
32491;SDS011;20605;49.742;18.802;2023-04-15T06:47:06;1.50;;;1.50;;
32491;SDS011;20605;49.742;18.802;2023-04-15T06:49:33;2.30;;;2.20;;
32491;SDS011;20605;49.742;18.802;2023-04-15T06:51:59;2.60;;;1.70;;
32491;SDS011;20605;49.742;18.802;2023-04-15T06:54:26;1.30;;;1.30;;
32491;SDS011;20605;49.742;18.802;2023-04-15T06:56:52;1.40;;;1.30;;
32491;SDS011;20605;49.742;18.802;2023-04-15T06:59:17;1.50;;;1.50;;
32491;SDS011;20605;49.742;18.802;2023-04-15T07:01:43;1.50;;;1.50;;
32491;SDS011;20605;49.742;18.802;2023-04-15T07:04:09;1.70;;;1.60;;
32491;SDS011;20605;49.742;18.802;2023-04-15T07:06:36;3.90;;;3.00;;
32491;SDS011;20605;49.742;18.802;2023-04-15T07:09:02;1.70;;;1.70;;
32491;SDS011;20605;49.742;18.802;2023-04-15T07:11:29;2.00;;;1.90;;
32491;SDS011;20605;49.742;18.802;2023-04-15T07:13:56;1.50;;;1.40;;
32491;SDS011;20605;49.742;18.802;2023-04-15T07:16:23;1.30;;;1.30;;
32491;SDS011;20605;49.742;18.802;2023-04-15T07:18:48;1.70;;;1.70;;
32491;SDS011;20605;49.742;18.802;2023-04-15T07:21:14;1.80;;;1.70;;
32491;SDS011;20605;49.742;18.802;2023-04-15T07:23:40;1.40;;;1.30;;
32491;SDS011;20605;49.742;18.802;2023-04-15T07:26:07;1.20;;;1.20;;
32491;SDS011;20605;49.742;18.802;2023-04-15T07:28:35;1.20;;;1.10;;
32491;SDS011;20605;49.742;18.802;2023-04-15T07:31:01;1.50;;;1.40;;
32491;SDS011;20605;49.742;18.802;2023-04-15T07:33:26;0.90;;;0.90;;
32491;SDS011;20605;49.742;18.802;2023-04-15T07:35:52;1.40;;;1.30;;
32491;SDS011;20605;49.742;18.802;2023-04-15T07:38:18;1.60;;;1.50;;
32491;SDS011;20605;49.742;18.802;2023-04-15T07:40:45;2.20;;;1.60;;
32491;SDS011;20605;49.742;18.802;2023-04-15T07:43:11;1.10;;;1.10;;
32491;SDS011;20605;49.742;18.802;2023-04-15T07:45:37;1.30;;;1.30;;
32491;SDS011;20605;49.742;18.802;2023-04-15T07:48:03;1.30;;;1.30;;
32491;SDS011;20605;49.742;18.802;2023-04-15T07:50:30;1.30;;;1.30;;
32491;SDS011;20605;49.742;18.802;2023-04-15T07:52:57;1.50;;;1.50;;
32491;SDS011;20605;49.742;18.802;2023-04-15T07:55:23;2.60;;;2.40;;
32491;SDS011;20605;49.742;18.802;2023-04-15T07:57:49;2.00;;;1.60;;
32491;SDS011;20605;49.742;18.802;2023-04-15T08:00:15;3.40;;;2.10;;
32491;SDS011;20605;49.742;18.802;2023-04-15T08:02:42;1.60;;;1.50;;
32491;SDS011;20605;49.742;18.802;2023-04-15T08:05:08;2.10;;;1.90;;
32491;SDS011;20605;49.742;18.802;2023-04-15T08:07:35;2.30;;;1.10;;
32491;SDS011;20605;49.742;18.802;2023-04-15T08:10:02;6.00;;;5.40;;
32491;SDS011;20605;49.742;18.802;2023-04-15T08:12:28;4.50;;;4.10;;
32491;SDS011;20605;49.742;18.802;2023-04-15T08:14:54;1.80;;;1.70;;
32491;SDS011;20605;49.742;18.802;2023-04-15T08:17:21;1.10;;;1.10;;
32491;SDS011;20605;49.742;18.802;2023-04-15T08:19:47;1.10;;;1.10;;
32491;SDS011;20605;49.742;18.802;2023-04-15T08:22:13;1.60;;;1.50;;
32491;SDS011;20605;49.742;18.802;2023-04-15T08:24:39;3.50;;;1.60;;
32491;SDS011;20605;49.742;18.802;2023-04-15T08:27:05;1.60;;;1.50;;
32491;SDS011;20605;49.742;18.802;2023-04-15T08:29:32;2.00;;;1.70;;
32491;SDS011;20605;49.742;18.802;2023-04-15T08:31:59;1.50;;;1.40;;
32491;SDS011;20605;49.742;18.802;2023-04-15T08:34:28;1.40;;;1.40;;
32491;SDS011;20605;49.742;18.802;2023-04-15T08:36:54;1.20;;;1.20;;
32491;SDS011;20605;49.742;18.802;2023-04-15T08:39:21;1.60;;;1.60;;
32491;SDS011;20605;49.742;18.802;2023-04-15T08:41:49;2.50;;;2.40;;
32491;SDS011;20605;49.742;18.802;2023-04-15T08:44:18;2.30;;;2.20;;
32491;SDS011;20605;49.742;18.802;2023-04-15T08:46:46;1.70;;;1.60;;
32491;SDS011;20605;49.742;18.802;2023-04-15T08:49:13;1.30;;;1.30;;
32491;SDS011;20605;49.742;18.802;2023-04-15T08:51:41;2.10;;;2.00;;
32491;SDS011;20605;49.742;18.802;2023-04-15T08:54:07;2.50;;;2.00;;
32491;SDS011;20605;49.742;18.802;2023-04-15T08:56:34;1.20;;;1.20;;
32491;SDS011;20605;49.742;18.802;2023-04-15T08:59:01;1.50;;;1.50;;
32491;SDS011;20605;49.742;18.802;2023-04-15T09:01:28;1.30;;;1.20;;
32491;SDS011;20605;49.742;18.802;2023-04-15T09:03:53;1.30;;;1.20;;
32491;SDS011;20605;49.742;18.802;2023-04-15T09:06:22;1.40;;;1.30;;
32491;SDS011;20605;49.742;18.802;2023-04-15T09:08:48;2.10;;;2.00;;
32491;SDS011;20605;49.742;18.802;2023-04-15T09:11:16;1.60;;;1.50;;
32491;SDS011;20605;49.742;18.802;2023-04-15T09:13:43;2.20;;;2.00;;
32491;SDS011;20605;49.742;18.802;2023-04-15T09:16:10;2.10;;;1.50;;
32491;SDS011;20605;49.742;18.802;2023-04-15T09:18:38;1.60;;;1.50;;
32491;SDS011;20605;49.742;18.802;2023-04-15T09:21:07;1.50;;;1.40;;
32491;SDS011;20605;49.742;18.802;2023-04-15T09:23:36;2.30;;;2.10;;
32491;SDS011;20605;49.742;18.802;2023-04-15T09:26:33;2.70;;;2.50;;
32491;SDS011;20605;49.742;18.802;2023-04-15T09:29:06;3.20;;;2.80;;
32491;SDS011;20605;49.742;18.802;2023-04-15T09:31:38;1.60;;;1.50;;
32491;SDS011;20605;49.742;18.802;2023-04-15T09:34:08;1.80;;;1.70;;
32491;SDS011;20605;49.742;18.802;2023-04-15T09:39:14;1.90;;;1.80;;
32491;SDS011;20605;49.742;18.802;2023-04-15T09:41:42;11.30;;;9.00;;
32491;SDS011;20605;49.742;18.802;2023-04-15T09:44:23;3.00;;;2.70;;
32491;SDS011;20605;49.742;18.802;2023-04-15T09:46:55;2.10;;;2.00;;
32491;SDS011;20605;49.742;18.802;2023-04-15T09:49:54;1.80;;;1.70;;
32491;SDS011;20605;49.742;18.802;2023-04-15T09:53:05;1.80;;;1.70;;
32491;SDS011;20605;49.742;18.802;2023-04-15T09:55:49;1.70;;;1.60;;
32491;SDS011;20605;49.742;18.802;2023-04-15T09:58:34;2.30;;;2.10;;
32491;SDS011;20605;49.742;18.802;2023-04-15T10:01:56;3.00;;;2.80;;
32491;SDS011;20605;49.742;18.802;2023-04-15T10:05:37;2.60;;;2.40;;
32491;SDS011;20605;49.742;18.802;2023-04-15T10:08:32;16.20;;;14.60;;
32491;SDS011;20605;49.742;18.802;2023-04-15T10:11:04;3.00;;;2.80;;
32491;SDS011;20605;49.742;18.802;2023-04-15T10:14:51;5.30;;;3.50;;
32491;SDS011;20605;49.742;18.802;2023-04-15T10:18:45;31.60;;;25.50;;
32491;SDS011;20605;49.742;18.802;2023-04-15T10:22:32;23.00;;;12.40;;
32491;SDS011;20605;49.742;18.802;2023-04-15T10:25:03;5.50;;;3.50;;
32491;SDS011;20605;49.742;18.802;2023-04-15T10:27:34;2.80;;;2.40;;
32491;SDS011;20605;49.742;18.802;2023-04-15T10:30:01;5.60;;;5.10;;
32491;SDS011;20605;49.742;18.802;2023-04-15T10:32:28;17.80;;;13.70;;
32491;SDS011;20605;49.742;18.802;2023-04-15T10:34:55;9.00;;;6.60;;
32491;SDS011;20605;49.742;18.802;2023-04-15T10:37:35;7.00;;;6.30;;
32491;SDS011;20605;49.742;18.802;2023-04-15T10:42:53;2.80;;;2.60;;
32491;SDS011;20605;49.742;18.802;2023-04-15T10:45:20;5.60;;;4.10;;
32491;SDS011;20605;49.742;18.802;2023-04-15T10:47:50;3.10;;;2.60;;
32491;SDS011;20605;49.742;18.802;2023-04-15T10:50:18;3.70;;;2.80;;
32491;SDS011;20605;49.742;18.802;2023-04-15T10:52:44;3.40;;;1.80;;
32491;SDS011;20605;49.742;18.802;2023-04-15T10:55:13;7.00;;;5.90;;
32491;SDS011;20605;49.742;18.802;2023-04-15T10:57:43;3.20;;;2.40;;
32491;SDS011;20605;49.742;18.802;2023-04-15T11:00:13;1.90;;;1.70;;
32491;SDS011;20605;49.742;18.802;2023-04-15T11:02:44;2.00;;;1.90;;
32491;SDS011;20605;49.742;18.802;2023-04-15T11:05:14;6.90;;;4.40;;
32491;SDS011;20605;49.742;18.802;2023-04-15T11:07:54;6.20;;;3.50;;
32491;SDS011;20605;49.742;18.802;2023-04-15T11:12:50;17.70;;;14.70;;
32491;SDS011;20605;49.742;18.802;2023-04-15T11:18:10;2.00;;;1.90;;
32491;SDS011;20605;49.742;18.802;2023-04-15T11:20:53;2.60;;;2.30;;
32491;SDS011;20605;49.742;18.802;2023-04-15T11:23:31;2.40;;;2.20;;
32491;SDS011;20605;49.742;18.802;2023-04-15T11:26:02;1.80;;;1.70;;
32491;SDS011;20605;49.742;18.802;2023-04-15T11:28:47;4.30;;;3.90;;
32491;SDS011;20605;49.742;18.802;2023-04-15T11:31:16;4.50;;;2.50;;
32491;SDS011;20605;49.742;18.802;2023-04-15T11:33:44;5.60;;;3.70;;
32491;SDS011;20605;49.742;18.802;2023-04-15T11:36:11;4.50;;;2.90;;
32491;SDS011;20605;49.742;18.802;2023-04-15T11:38:41;2.30;;;2.10;;
32491;SDS011;20605;49.742;18.802;2023-04-15T11:41:07;1.70;;;1.60;;
32491;SDS011;20605;49.742;18.802;2023-04-15T11:43:33;2.00;;;1.90;;
32491;SDS011;20605;49.742;18.802;2023-04-15T11:46:00;2.40;;;2.00;;
32491;SDS011;20605;49.742;18.802;2023-04-15T11:48:28;2.00;;;1.80;;
32491;SDS011;20605;49.742;18.802;2023-04-15T11:50:59;2.50;;;1.90;;
32491;SDS011;20605;49.742;18.802;2023-04-15T11:53:39;1.60;;;1.50;;
32491;SDS011;20605;49.742;18.802;2023-04-15T11:56:09;1.90;;;1.80;;
32491;SDS011;20605;49.742;18.802;2023-04-15T11:58:47;1.90;;;1.80;;
32491;SDS011;20605;49.742;18.802;2023-04-15T12:01:17;2.10;;;1.90;;
32491;SDS011;20605;49.742;18.802;2023-04-15T12:03:46;2.10;;;1.90;;
32491;SDS011;20605;49.742;18.802;2023-04-15T12:11:28;4.90;;;4.50;;
32491;SDS011;20605;49.742;18.802;2023-04-15T12:14:06;6.70;;;6.00;;
32491;SDS011;20605;49.742;18.802;2023-04-15T12:16:50;12.20;;;6.40;;
32491;SDS011;20605;49.742;18.802;2023-04-15T12:19:24;3.40;;;2.80;;
32491;SDS011;20605;49.742;18.802;2023-04-15T12:21:58;2.00;;;1.90;;
32491;SDS011;20605;49.742;18.802;2023-04-15T12:24:26;2.30;;;1.90;;
32491;SDS011;20605;49.742;18.802;2023-04-15T12:26:54;2.30;;;2.10;;
32491;SDS011;20605;49.742;18.802;2023-04-15T12:29:25;3.50;;;2.80;;
32491;SDS011;20605;49.742;18.802;2023-04-15T12:31:53;2.10;;;1.90;;
32491;SDS011;20605;49.742;18.802;2023-04-15T12:34:27;2.00;;;1.90;;
32491;SDS011;20605;49.742;18.802;2023-04-15T12:36:54;2.30;;;2.10;;
32491;SDS011;20605;49.742;18.802;2023-04-15T12:39:25;2.90;;;2.10;;
32491;SDS011;20605;49.742;18.802;2023-04-15T12:41:52;2.10;;;1.90;;
32491;SDS011;20605;49.742;18.802;2023-04-15T12:44:19;5.50;;;3.70;;
32491;SDS011;20605;49.742;18.802;2023-04-15T12:46:47;9.60;;;5.90;;
32491;SDS011;20605;49.742;18.802;2023-04-15T12:49:12;5.50;;;4.30;;
32491;SDS011;20605;49.742;18.802;2023-04-15T12:51:40;3.60;;;2.40;;
32491;SDS011;20605;49.742;18.802;2023-04-15T12:54:06;4.60;;;3.50;;
32491;SDS011;20605;49.742;18.802;2023-04-15T12:56:32;2.40;;;2.20;;
32491;SDS011;20605;49.742;18.802;2023-04-15T12:58:59;2.40;;;2.20;;
32491;SDS011;20605;49.742;18.802;2023-04-15T13:01:25;3.10;;;2.60;;
32491;SDS011;20605;49.742;18.802;2023-04-15T13:03:51;2.50;;;2.20;;
32491;SDS011;20605;49.742;18.802;2023-04-15T13:06:17;7.20;;;6.60;;
32491;SDS011;20605;49.742;18.802;2023-04-15T13:08:43;4.30;;;3.90;;
32491;SDS011;20605;49.742;18.802;2023-04-15T13:11:16;4.70;;;3.10;;
32491;SDS011;20605;49.742;18.802;2023-04-15T13:13:42;2.40;;;2.20;;
32491;SDS011;20605;49.742;18.802;2023-04-15T13:16:08;3.40;;;2.20;;
32491;SDS011;20605;49.742;18.802;2023-04-15T13:18:34;4.20;;;3.70;;
32491;SDS011;20605;49.742;18.802;2023-04-15T13:21:01;4.00;;;3.70;;
32491;SDS011;20605;49.742;18.802;2023-04-15T13:23:27;3.60;;;3.30;;
32491;SDS011;20605;49.742;18.802;2023-04-15T13:25:53;3.70;;;3.40;;
32491;SDS011;20605;49.742;18.802;2023-04-15T13:28:19;3.10;;;2.60;;
32491;SDS011;20605;49.742;18.802;2023-04-15T13:30:44;3.20;;;2.80;;
32491;SDS011;20605;49.742;18.802;2023-04-15T13:33:12;3.00;;;2.80;;
32491;SDS011;20605;49.742;18.802;2023-04-15T13:35:38;3.80;;;3.40;;
32491;SDS011;20605;49.742;18.802;2023-04-15T13:38:06;7.50;;;6.20;;
32491;SDS011;20605;49.742;18.802;2023-04-15T13:40:32;6.20;;;4.50;;
32491;SDS011;20605;49.742;18.802;2023-04-15T13:42:58;5.90;;;5.30;;
32491;SDS011;20605;49.742;18.802;2023-04-15T13:45:24;4.50;;;3.30;;
32491;SDS011;20605;49.742;18.802;2023-04-15T13:47:51;3.70;;;3.40;;
32491;SDS011;20605;49.742;18.802;2023-04-15T13:50:17;2.80;;;2.50;;
32491;SDS011;20605;49.742;18.802;2023-04-15T13:52:43;2.40;;;2.20;;
32491;SDS011;20605;49.742;18.802;2023-04-15T13:55:09;2.40;;;2.20;;
32491;SDS011;20605;49.742;18.802;2023-04-15T13:57:40;2.80;;;2.60;;
32491;SDS011;20605;49.742;18.802;2023-04-15T14:00:07;3.90;;;2.60;;
32491;SDS011;20605;49.742;18.802;2023-04-15T14:02:33;3.50;;;3.20;;
32491;SDS011;20605;49.742;18.802;2023-04-15T14:04:59;5.10;;;3.80;;
32491;SDS011;20605;49.742;18.802;2023-04-15T14:07:25;21.70;;;14.20;;
32491;SDS011;20605;49.742;18.802;2023-04-15T14:09:53;41.30;;;26.60;;
32491;SDS011;20605;49.742;18.802;2023-04-15T14:12:19;112.40;;;64.00;;
32491;SDS011;20605;49.742;18.802;2023-04-15T14:14:45;50.60;;;26.90;;
32491;SDS011;20605;49.742;18.802;2023-04-15T14:17:11;17.00;;;9.50;;
32491;SDS011;20605;49.742;18.802;2023-04-15T14:19:37;44.60;;;23.70;;
32491;SDS011;20605;49.742;18.802;2023-04-15T14:22:03;49.50;;;26.30;;
32491;SDS011;20605;49.742;18.802;2023-04-15T14:24:29;75.40;;;40.10;;
32491;SDS011;20605;49.742;18.802;2023-04-15T14:26:55;31.20;;;17.90;;
32491;SDS011;20605;49.742;18.802;2023-04-15T14:29:22;13.90;;;8.90;;
32491;SDS011;20605;49.742;18.802;2023-04-15T14:31:48;63.30;;;43.70;;
32491;SDS011;20605;49.742;18.802;2023-04-15T14:34:14;63.50;;;45.80;;
32491;SDS011;20605;49.742;18.802;2023-04-15T14:36:41;15.00;;;10.60;;
32491;SDS011;20605;49.742;18.802;2023-04-15T14:39:09;24.70;;;15.60;;
32491;SDS011;20605;49.742;18.802;2023-04-15T14:41:35;33.80;;;20.30;;
32491;SDS011;20605;49.742;18.802;2023-04-15T14:44:02;12.20;;;7.00;;
32491;SDS011;20605;49.742;18.802;2023-04-15T14:46:28;5.80;;;5.20;;
32491;SDS011;20605;49.742;18.802;2023-04-15T14:48:53;5.30;;;4.20;;
32491;SDS011;20605;49.742;18.802;2023-04-15T14:51:19;4.10;;;3.70;;
32491;SDS011;20605;49.742;18.802;2023-04-15T14:53:45;3.20;;;2.80;;
32491;SDS011;20605;49.742;18.802;2023-04-15T14:56:11;9.50;;;7.00;;
32491;SDS011;20605;49.742;18.802;2023-04-15T14:58:36;5.20;;;3.60;;
32491;SDS011;20605;49.742;18.802;2023-04-15T15:01:02;5.70;;;3.30;;